Terminal Aerodrome Forecast
Issued by NWS

Home | Current Version | Previous Version | Text Only | Print | Product List | Glossary On
Versions: 1 2 3 4 5 6 7 8 9 10 11 12 13 14
000
FTUS41 KCAR 041731
TAFFVE
TAF
KFVE 041731Z 0418/0518 22009KT P6SM VCTS BKN050CB
     FM042100 22005KT P6SM BKN050
     FM050200 20004KT P6SM BKN050
     FM051400 24010KT P6SM BKN050
      TEMPO 0515/0518 -SHRA=

USA.gov is the U.S. government's official web portal to all federal, state and local government web resources and services.